Latest Weather Observations for Mount Gellibrand

IDV60801

Issued at 4:05 pm EST Tuesday 23 September 2014 (issued every 30 minutes, with the page automatically refreshed every 10 minutes)

About weather observations | Map of weather stations | Latest weather observations for VIC | Other Formats
Station Details ID: 090035 Name: MOUNT GELLIBRAND Lat: -38.23 Lon: 143.79 Height: 261.0 m
Data from the previous 72 hours. | See also: Recent months at Mount Gellibrand
Date/Time
EST
Temp
°C
App
Temp
°C
Dew
Point
Rel
Hum
%
Delta-T
°C
Wind Press
QNH
hPa
Press
MSL
hPa
Rain
since 9 am
mm
Dir
 
Spd
km/h
Gust
km/h
Spd
kts
Gust
kts
23/04:00pm 21.8 17.4 6.5 37 7.8 N 19 24 10 13 1021.7 1021.9 0.0
23/03:30pm 21.9 17.3 5.8 35 8.2 N 19 24 10 13 1021.9 1022.1 0.0
23/03:00pm 22.3 18.2 6.1 35 8.3 N 17 22 9 12 1022.2 1022.4 0.0
23/02:30pm 22.5 18.1 7.5 38 7.9 NNW 20 26 11 14 1022.6 1022.8 0.0
23/02:00pm 22.6 18.1 6.8 36 8.2 NNW 20 26 11 14 1023.0 1023.2 0.0
23/01:30pm 22.8 17.7 6.1 34 8.6 N 22 30 12 16 1023.2 1023.5 0.0
23/01:00pm 22.7 17.1 5.6 33 8.7 NNW 24 32 13 17 1023.5 1023.8 0.0
23/12:30pm 22.7 15.1 2.8 27 9.6 N 32 39 17 21 1023.7 1024.0 0.0
23/12:00pm 22.5 16.3 6.3 35 8.3 N 28 35 15 19 1024.2 1024.4 0.0
23/11:30am 20.8 18.3 9.7 49 6.0 NNW 13 26 7 14 1024.9 1025.1 0.0
23/11:00am 19.1 17.0 9.9 55 4.9 NNW 11 15 6 8 1025.5 1025.7 0.0
23/10:30am 18.2 16.5 9.8 58 4.5 NW 9 15 5 8 1025.8 1026.0 0.0
23/10:00am 16.8 14.1 8.8 59 4.1 N 13 15 7 8 1026.0 1026.2 0.0
23/09:30am 15.7 12.9 7.0 56 4.3 N 11 15 6 8 1026.0 1026.2 0.0
23/09:00am 14.7 12.0 7.5 62 3.6 NNE 11 17 6 9 1026.0 1026.2 0.0
23/08:30am 13.9 10.7 5.0 55 4.2 NNE 11 13 6 7 1026.2 1026.4 0.0
23/08:00am 12.6 10.4 5.3 61 3.4 ENE 6 9 3 5 1026.2 1026.4 0.0
23/07:30am 11.8 9.5 5.0 63 3.2 ENE 6 9 3 5 1026.2 1026.4 0.0
23/07:00am 10.8 8.3 4.5 65 2.9 E 7 7 4 4 1026.1 1026.3 0.0
23/06:30am 10.6 8.1 3.9 63 3.0 NNE 6 7 3 4 1025.9 1026.1 0.0
23/06:00am 9.9 6.8 3.6 65 2.8 NNE 9 11 5 6 1025.6 1025.8 0.0
23/05:30am 9.8 5.2 3.8 66 2.7 N 17 20 9 11 1025.3 1025.5 0.0
23/05:00am 10.6 5.1 3.9 63 3.0 N 22 26 12 14 1025.0 1025.2 0.0
23/04:30am 11.8 5.9 4.1 59 3.5 N 24 30 13 16 1025.0 1025.2 0.0
23/04:00am 11.4 5.2 4.4 62 3.2 N 26 30 14 16 1024.8 1025.0 0.0
23/03:30am 11.7 4.8 4.7 62 3.2 N 30 33 16 18 1024.6 1024.8 0.0
23/03:00am 10.9 4.0 4.8 66 2.8 N 30 35 16 19 1024.6 1024.8 0.0
23/02:30am 9.9 3.8 4.7 70 2.4 N 26 30 14 16 1024.8 1025.0 0.0
23/02:00am 10.5 4.4 4.6 67 2.7 N 26 32 14 17 1025.1 1025.3 0.0
23/01:30am 12.0 5.9 4.7 61 3.4 N 26 33 14 18 1025.4 1025.6 0.0
23/01:00am 12.4 7.1 5.1 61 3.4 N 22 30 12 16 1025.8 1026.0 0.0
23/12:30am 12.7 7.5 5.4 61 3.4 N 22 30 12 16 1026.0 1026.2 0.0
23/12:00am 11.4 7.1 6.9 74 2.2 NNE 19 20 10 11 1026.2 1026.4 0.0
 
Date/Time
EST
Temp
°C
App
Temp
°C
Dew
Point
Rel
Hum
%
Delta-T
°C
Wind Press
QNH
hPa
Press
MSL
hPa
Rain
since 9 am
mm
Dir
 
Spd
km/h
Gust
km/h
Spd
kts
Gust
kts
22/11:30pm 11.1 7.1 6.8 75 2.1 NE 17 19 9 10 1026.4 1026.7 0.0
22/11:00pm 11.9 7.8 6.2 68 2.7 ENE 17 19 9 10 1026.8 1027.1 0.0
22/10:30pm 12.1 7.6 5.9 66 2.9 ENE 19 22 10 12 1027.0 1027.3 0.0
22/10:00pm 11.8 7.1 5.9 67 2.8 E 20 22 11 12 1027.1 1027.4 0.0
22/09:30pm 12.1 8.0 6.2 67 2.8 E 17 20 9 11 1027.3 1027.6 0.0
22/09:00pm 12.8 8.7 6.4 65 3.1 E 17 20 9 11 1027.3 1027.6 0.0
22/08:30pm 13.6 9.5 6.2 61 3.6 E 17 19 9 10 1027.1 1027.4 0.0
22/08:00pm 13.9 9.9 6.7 62 3.5 E 17 19 9 10 1027.0 1027.3 0.0
22/07:30pm 13.8 10.1 7.8 67 3.0 E 17 20 9 11 1026.7 1027.0 0.0
22/07:00pm 14.3 10.7 8.5 68 2.9 E 17 20 9 11 1026.4 1026.7 0.0
22/06:30pm 17.7 16.1 2.5 36 7.0 CALM 0 0 0 0 1026.1 1026.3 0.0
22/06:00pm 18.3 17.0 4.1 39 6.8 CALM 0 0 0 0 1026.1 1026.3 0.0
22/05:30pm 18.8 17.4 5.3 41 6.7 W 2 4 1 2 1025.9 1026.1 0.0
22/05:00pm 19.3 17.2 5.7 41 6.7 W 6 9 3 5 1025.9 1026.1 0.0
22/04:30pm 19.5 16.4 5.6 40 6.9 WNW 11 15 6 8 1025.8 1026.0 0.0
22/04:00pm 19.7 16.1 5.0 38 7.2 NW 13 19 7 10 1025.7 1025.9 0.0
22/03:30pm 19.8 15.5 3.5 34 7.8 WNW 15 24 8 13 1025.7 1025.9 0.0
22/03:00pm 19.6 14.6 1.6 30 8.2 NNW 17 22 9 12 1026.0 1026.2 0.0
22/02:30pm 19.6 16.8 5.3 39 7.1 NW 9 17 5 9 1026.2 1026.4 0.0
22/02:00pm 18.9 15.2 6.1 43 6.4 NNW 15 20 8 11 1026.4 1026.7 0.0
22/01:30pm 18.6 15.2 6.1 44 6.3 WNW 13 20 7 11 1026.8 1027.1 0.0
22/01:00pm 18.5 15.9 7.9 50 5.5 NW 11 19 6 10 1027.2 1027.5 0.0
22/12:30pm 18.2 15.0 7.0 48 5.7 NW 13 22 7 12 1027.5 1027.8 0.0
22/12:00pm 16.6 13.7 8.3 58 4.3 NW 13 22 7 12 1028.0 1028.2 0.0
22/11:30am 15.9 12.9 9.3 65 3.5 NW 15 20 8 11 1028.3 1028.5 0.0
22/11:00am 15.1 13.3 9.5 69 2.9 NW 9 13 5 7 1028.6 1028.8 0.0
22/10:30am 13.5 11.8 8.4 71 2.6 NW 7 11 4 6 1028.9 1029.1 0.0
22/10:00am 11.9 10.0 7.6 75 2.1 N 7 11 4 6 1029.1 1029.3 0.0
22/09:30am 10.7 8.3 6.8 77 1.9 N 9 13 5 7 1029.1 1029.3 0.0
22/09:00am 9.9 8.1 7.8 87 1.0 NNE 7 9 4 5 1029.1 1029.3 0.0
22/08:30am 9.7 7.7 6.4 80 1.6 NNW 6 9 3 5 1029.1 1029.3 0.0
22/08:00am 9.4 7.7 5.8 78 1.7 N 4 7 2 4 1029.1 1029.3 0.0
22/07:30am 7.2 4.4 5.2 87 0.9 NNE 9 17 5 9 1028.9 1029.1 0.0
22/07:00am 6.5 3.3 5.0 90 0.7 NE 11 15 6 8 1028.7 1028.9 0.0
22/06:30am 6.4 2.4 5.0 91 0.6 ENE 15 17 8 9 1028.4 1028.6 0.0
22/06:00am 6.2 2.2 4.8 91 0.6 ENE 15 17 8 9 1028.2 1028.4 0.0
22/05:30am 6.5 2.2 5.1 91 0.6 ENE 17 20 9 11 1028.1 1028.3 0.0
22/05:00am 6.4 2.0 5.0 91 0.6 ENE 17 19 9 10 1028.0 1028.2 0.0
22/04:30am 6.1 1.3 4.9 92 0.5 ENE 19 22 10 12 1027.8 1028.1 0.0
22/04:00am 6.0 1.1 5.0 93 0.4 ENE 20 22 11 12 1027.7 1028.0 0.0
22/03:30am 5.8 1.0 4.8 93 0.4 ENE 19 20 10 11 1027.7 1028.0 0.0
22/03:00am 5.9 1.2 5.0 94 0.4 ENE 19 20 10 11 1028.0 1028.2 0.0
22/02:30am 5.6 1.6 4.7 94 0.4 ENE 15 17 8 9 1028.5 1028.7 0.0
22/02:00am 6.0 1.3 5.1 94 0.4 ENE 19 19 10 10 1028.6 1028.8 0.0
22/01:30am 5.8 1.4 4.8 93 0.4 ENE 17 19 9 10 1028.7 1028.9 0.0
22/01:00am 6.2 1.8 4.8 91 0.6 NE 17 19 9 10 1028.9 1029.1 0.0
22/12:30am 6.5 2.2 5.1 91 0.6 NE 17 19 9 10 1029.0 1029.2 0.0
22/12:00am 6.5 2.1 5.0 90 0.7 NE 17 19 9 10 1029.2 1029.4 0.0
 
Date/Time
EST
Temp
°C
App
Temp
°C
Dew
Point
Rel
Hum
%
Delta-T
°C
Wind Press
QNH
hPa
Press
MSL
hPa
Rain
since 9 am
mm
Dir
 
Spd
km/h
Gust
km/h
Spd
kts
Gust
kts
21/11:30pm 6.5 2.1 5.0 90 0.7 ENE 17 19 9 10 1029.3 1029.5 0.0
21/11:00pm 6.5 2.2 5.1 91 0.6 ENE 17 19 9 10 1029.6 1029.8 0.0
21/10:30pm 6.2 2.2 4.7 90 0.7 ENE 15 15 8 8 1029.6 1029.8 0.0
21/10:00pm 7.6 2.7 5.2 85 1.1 E 20 22 11 12 1029.7 1030.0 0.0
21/09:30pm 8.0 2.8 5.3 83 1.2 E 22 26 12 14 1029.8 1030.1 0.0
21/09:00pm 7.8 2.9 5.1 83 1.2 E 20 24 11 13 1029.9 1030.2 0.0
21/08:30pm 7.6 2.7 5.1 84 1.1 E 20 24 11 13 1030.1 1030.4 0.0
21/08:00pm 8.1 2.8 5.2 82 1.3 ESE 22 28 12 15 1030.3 1030.6 0.0
21/07:30pm 8.0 2.8 5.3 83 1.2 ESE 22 26 12 14 1030.1 1030.4 0.0
21/07:00pm 8.3 3.5 5.4 82 1.3 ESE 20 24 11 13 1029.9 1030.2 0.0
21/06:30pm 8.9 4.1 5.6 80 1.5 ESE 20 26 11 14 1029.6 1029.8 0.0
21/06:00pm 10.1 5.1 6.3 77 1.8 ESE 22 26 12 14 1029.3 1029.5 0.0
21/05:30pm 11.8 7.3 7.1 73 2.3 E 20 26 11 14 1029.2 1029.4 0.0
21/05:00pm 13.3 11.3 7.1 66 3.0 ESE 7 11 4 6 1029.1 1029.3 0.0
21/04:30pm 13.9 12.1 7.0 63 3.4 E 6 9 3 5 1029.3 1029.5 0.0
21/04:00pm 14.3 12.6 7.4 63 3.4 ESE 6 9 3 5 1029.4 1029.6 0.0
21/03:30pm 14.5 12.3 8.0 65 3.3 NE 9 15 5 8 1029.6 1029.8 0.0
21/03:00pm 14.5 12.9 8.2 66 3.2 ESE 6 9 3 5 1029.7 1030.0 0.0
21/02:30pm 13.9 11.3 6.3 60 3.7 NE 9 19 5 10 1029.9 1030.2 0.0
21/02:00pm 13.9 11.9 7.2 64 3.3 E 7 13 4 7 1030.2 1030.5 0.0
21/01:30pm 13.6 11.7 7.4 66 3.1 E 7 15 4 8 1030.4 1030.7 0.0
21/01:00pm 13.1 10.6 6.7 65 3.1 SSE 9 15 5 8 1030.7 1031.0 0.0
21/12:30pm 13.3 10.2 7.3 67 3.0 E 13 19 7 10 1031.3 1031.6 0.0
21/12:00pm 12.0 9.1 6.5 69 2.6 SSE 11 19 6 10 1031.6 1031.9 0.0
21/11:30am 11.8 8.8 6.1 68 2.7 SE 11 20 6 11 1031.8 1032.1 0.0
21/11:00am 11.8 8.6 6.7 71 2.4 SE 13 22 7 12 1032.2 1032.4 0.0
21/10:30am 11.3 7.5 5.8 69 2.6 SE 15 19 8 10 1032.3 1032.5 0.0
21/10:00am 11.7 8.6 5.6 66 2.8 E 11 20 6 11 1032.1 1032.3 0.0
21/09:30am 11.9 7.4 6.2 68 2.7 ESE 19 26 10 14 1031.8 1032.1 0.0
21/09:00am 11.7 8.4 6.2 69 2.6 ESE 13 20 7 11 1031.6 1031.9 0.2
21/08:30am 10.6 7.9 5.8 72 2.2 ESE 9 15 5 8 1031.3 1031.6 0.2
21/08:00am 9.8 7.1 5.6 75 1.9 SE 9 11 5 6 1031.2 1031.5 0.2
21/07:30am 9.2 6.7 4.8 74 2.0 ESE 7 11 4 6 1030.9 1031.2 0.2
21/07:00am 8.6 5.6 4.2 74 1.9 SE 9 15 5 8 1030.9 1031.2 0.2
21/06:30am 8.3 5.6 3.9 74 1.9 SSE 7 11 4 6 1030.6 1030.9 0.2
21/06:00am 8.5 5.8 3.8 72 2.0 S 7 9 4 5 1030.2 1030.5 0.2
21/05:30am 8.5 6.0 3.8 72 2.1 SSE 6 9 3 5 1030.0 1030.3 0.2
21/05:00am 8.4 5.9 4.0 74 1.9 SSE 6 7 3 4 1030.0 1030.3 0.2
21/04:30am 8.5 5.1 3.9 73 2.0 SSE 11 19 6 10 1030.0 1030.3 0.2
21/04:00am 8.4 4.7 4.4 76 1.8 SSE 13 19 7 10 1029.9 1030.2 0.2
21/03:30am 8.7 5.4 4.5 75 1.9 SSE 11 15 6 8 1029.7 1030.0 0.2
21/03:00am 9.0 5.6 4.2 72 2.1 SSE 11 17 6 9 1029.7 1030.0 0.2
21/02:30am 8.7 5.3 4.1 73 2.0 S 11 15 6 8 1029.6 1029.8 0.2
21/02:00am 8.7 4.8 5.3 79 1.5 S 15 17 8 9 1030.4 1030.7 0.2
21/01:30am 8.9 4.1 4.9 76 1.8 S 19 26 10 14 1030.4 1030.7 0.2
21/01:00am 9.0 6.1 4.8 75 1.9 S 9 11 5 6 1030.4 1030.7 0.2
21/12:30am 8.9 5.4 5.6 80 1.5 S 13 17 7 9 1030.4 1030.7 0.2
21/12:00am 8.9 5.3 4.9 76 1.8 SSE 13 17 7 9 1030.5 1030.8 0.2
 
Date/Time
EST
Temp
°C
App
Temp
°C
Dew
Point
Rel
Hum
%
Delta-T
°C
Wind Press
QNH
hPa
Press
MSL
hPa
Rain
since 9 am
mm
Dir
 
Spd
km/h
Gust
km/h
Spd
kts
Gust
kts
20/11:30pm 8.5 4.8 6.3 86 1.0 S 15 19 8 10 1030.3 1030.6 0.2
20/11:00pm 8.3 3.8 5.9 85 1.1 S 19 20 10 11 1030.1 1030.4 0.2
20/10:30pm 8.0 4.4 4.8 80 1.4 SSE 13 15 7 8 1030.2 1030.5 0.2
20/10:00pm 8.1 4.8 4.3 77 1.7 SSE 11 13 6 7 1030.1 1030.4 0.2
20/09:30pm 8.0 4.4 4.9 81 1.4 S 13 15 7 8 1030.1 1030.4 0.2
20/09:00pm 8.3 4.7 5.1 80 1.4 SSE 13 17 7 9 1030.1 1030.4 0.2
20/08:30pm 8.2 4.3 5.5 83 1.2 SSE 15 19 8 10 1030.1 1030.4 0.2
20/08:00pm 9.2 4.6 6.3 82 1.3 SSE 20 24 11 13 1030.1 1030.4 0.2
20/07:30pm 8.7 4.2 6.0 83 1.3 S 19 24 10 13 1030.0 1030.3 0.2
20/07:00pm 8.7 4.4 6.8 88 0.9 S 19 22 10 12 1029.5 1029.7 0.2
20/06:30pm 9.2 5.6 6.6 84 1.2 SSE 15 20 8 11 1029.3 1029.5 0.2
20/06:00pm 9.2 4.8 6.5 83 1.3 SE 19 24 10 13 1028.9 1029.1 0.2
20/05:30pm 10.8 7.2 6.9 77 1.9 SE 15 20 8 11 1028.6 1028.8 0.2
20/05:00pm 11.0 6.7 7.1 77 1.9 SE 19 20 10 11 1028.3 1028.5 0.2
20/04:30pm 11.8 7.6 7.5 75 2.1 SE 19 20 10 11 1028.0 1028.2 0.2

Other Formats:

Comma delimited format used in spreadsheet applications
http://www.bom.gov.au/fwo/IDV60801/IDV60801.95845.axf

JavaScript Object Notation format (JSON) in row-major order
http://www.bom.gov.au/fwo/IDV60801/IDV60801.95845.json